Time;durP1;ratioP1;P1;durP2;ratioP2;P2;SDS_P1;SDS_P2;PMS_P1;PMS_P2;Temp;Humidity;BMP_temperature;BMP_pressure;BME280_temperature;BME280_humidity;BME280_pressure;Samples;Min_cycle;Max_cycle;Signal;HPM_P1;HPM_P2
2021/12/30 00:02:26;;;;;;;5.53;3.80;;;;;;;5.00;100.00;93863.03;4989734;28;20209;-62
2021/12/30 00:04:51;;;;;;;3.73;3.17;;;;;;;4.92;100.00;93867.84;4989319;28;20189;-63
2021/12/30 00:07:17;;;;;;;5.40;3.63;;;;;;;4.96;100.00;93871.72;4990030;28;20281;-61
2021/12/30 00:09:43;;;;;;;6.47;3.47;;;;;;;5.03;100.00;93867.00;4988159;28;20181;-63
2021/12/30 00:12:09;;;;;;;5.93;4.47;;;;;;;4.91;100.00;93863.72;4989737;28;20211;-61
2021/12/30 00:14:35;;;;;;;4.03;3.30;;;;;;;4.93;100.00;93861.88;4989288;28;20191;-60
2021/12/30 00:17:00;;;;;;;5.27;2.97;;;;;;;4.76;100.00;93864.88;4989392;28;20228;-61
2021/12/30 00:19:26;;;;;;;3.87;3.00;;;;;;;4.83;100.00;93866.00;4987957;28;20256;-62
2021/12/30 00:21:51;;;;;;;4.17;2.90;;;;;;;4.84;100.00;93865.09;4989524;28;20209;-60
2021/12/30 00:24:24;;;;;;;3.37;2.83;;;;;;;4.76;100.00;93869.09;4987848;28;20183;-60
2021/12/30 00:26:49;;;;;;;4.37;2.77;;;;;;;4.70;100.00;93872.88;4989304;28;20551;-61
2021/12/30 00:29:22;;;;;;;3.37;2.73;;;;;;;4.78;100.00;93877.34;4989170;28;20633;-61
2021/12/30 00:31:47;;;;;;;3.87;3.20;;;;;;;4.82;100.00;93883.75;4989412;28;20217;-60
2021/12/30 00:34:13;;;;;;;4.37;2.63;;;;;;;4.42;100.00;93854.91;4987741;28;20183;-61
2021/12/30 00:36:38;;;;;;;3.90;2.80;;;;;;;4.64;100.00;93883.41;4989117;28;20706;-61
2021/12/30 00:39:04;;;;;;;4.83;2.53;;;;;;;4.63;100.00;93886.81;4989201;28;20568;-63
2021/12/30 00:41:29;;;;;;;2.80;2.30;;;;;;;4.68;100.00;93883.97;4989090;28;20200;-61
2021/12/30 00:43:55;;;;;;;3.03;2.47;;;;;;;4.68;100.00;93884.78;4989084;28;20180;-60
2021/12/30 00:46:20;;;;;;;3.30;2.67;;;;;;;4.71;100.00;93891.28;4989202;28;20795;-60
2021/12/30 00:48:46;;;;;;;2.70;1.97;;;;;;;4.79;100.00;93882.25;4988991;28;20200;-60
2021/12/30 00:51:12;;;;;;;2.83;2.40;;;;;;;4.80;100.00;93891.41;4991827;28;20214;-61
2021/12/30 00:53:37;;;;;;;2.80;2.47;;;;;;;4.81;100.00;93887.97;4992164;28;20653;-61
2021/12/30 00:56:03;;;;;;;2.60;2.30;;;;;;;4.81;100.00;93887.97;4991929;28;20583;-62
2021/12/30 00:58:29;;;;;;;3.23;2.37;;;;;;;4.66;100.00;93883.28;4992215;28;20200;-59
2021/12/30 01:00:55;;;;;;;2.87;2.27;;;;;;;4.82;100.00;93891.31;4992290;28;20265;-60
2021/12/30 01:03:21;;;;;;;3.00;2.20;;;;;;;4.72;100.00;93895.41;4992420;28;20186;-62
2021/12/30 01:05:47;;;;;;;3.00;2.47;;;;;;;4.78;100.00;93892.44;4997456;23;21319;-61
2021/12/30 01:08:14;;;;;;;2.97;2.20;;;;;;;4.72;100.00;93898.75;4991955;28;20175;-60
2021/12/30 01:10:42;;;;;;;2.80;2.40;;;;;;;4.75;100.00;93897.69;4990760;28;20204;-62
2021/12/30 01:13:15;;;;;;;3.33;2.10;;;;;;;4.73;100.00;93907.88;4992088;28;20188;-63
2021/12/30 01:15:56;;;;;;;4.43;2.10;;;;;;;4.81;100.00;93908.13;4992084;28;20210;-61
2021/12/30 01:18:35;;;;;;;2.90;2.20;;;;;;;4.90;100.00;93902.41;4991699;28;20238;-61
2021/12/30 01:21:01;;;;;;;3.40;2.17;;;;;;;4.81;100.00;93917.38;4992075;28;20639;-62
2021/12/30 01:23:27;;;;;;;3.43;2.50;;;;;;;4.73;100.00;93915.44;4991804;28;20667;-62
2021/12/30 01:25:55;;;;;;;2.97;2.47;;;;;;;4.68;100.00;93919.22;4992034;28;20274;-61
2021/12/30 01:28:22;;;;;;;2.77;2.20;;;;;;;4.67;100.00;93918.41;4991578;28;20232;-62
2021/12/30 01:30:48;;;;;;;2.23;2.00;;;;;;;4.76;100.00;93924.47;4991665;28;20655;-61
2021/12/30 01:33:14;;;;;;;2.67;2.20;;;;;;;4.64;100.00;93921.16;4991643;28;20264;-62
2021/12/30 01:35:41;;;;;;;4.00;2.60;;;;;;;4.78;100.00;93922.66;4991573;28;20201;-61
2021/12/30 01:38:11;;;;;;;3.10;2.23;;;;;;;4.72;100.00;93930.66;4991709;28;20348;-61
2021/12/30 01:40:38;;;;;;;2.23;1.80;;;;;;;4.70;100.00;93923.22;4991462;28;20220;-61
2021/12/30 01:43:04;;;;;;;3.27;2.37;;;;;;;4.68;100.00;93916.69;4991441;28;20201;-60
2021/12/30 01:45:29;;;;;;;2.43;2.23;;;;;;;4.75;100.00;93917.81;4991398;28;20188;-61
2021/12/30 01:47:56;;;;;;;3.20;2.20;;;;;;;4.65;100.00;93912.69;4990252;28;20583;-61
2021/12/30 01:50:23;;;;;;;2.90;2.20;;;;;;;4.67;100.00;93917.59;4974024;28;20621;-62
2021/12/30 01:52:48;;;;;;;2.77;2.10;;;;;;;4.63;100.00;93917.03;4991581;28;20734;-60
2021/12/30 01:55:15;;;;;;;2.50;2.30;;;;;;;4.59;100.00;93923.19;4991381;28;20176;-63
2021/12/30 01:57:41;;;;;;;2.23;1.97;;;;;;;4.65;100.00;93917.72;4991410;28;20352;-60
2021/12/30 02:00:13;;;;;;;2.37;1.93;;;;;;;4.67;100.00;93931.00;4991222;28;20172;-62
2021/12/30 02:02:40;;;;;;;4.87;2.30;;;;;;;4.69;100.00;93923.31;4989716;28;20625;-62
2021/12/30 02:05:06;;;;;;;2.57;1.97;;;;;;;4.74;100.00;93922.09;4991222;28;20199;-62
2021/12/30 02:07:32;;;;;;;4.47;2.20;;;;;;;4.78;100.00;93925.97;4991397;28;20208;-60
2021/12/30 02:10:01;;;;;;;2.97;2.13;;;;;;;4.74;100.00;93928.81;4991506;28;20543;-61
2021/12/30 02:12:37;;;;;;;1.57;1.47;;;;;;;4.68;100.00;93929.28;4991564;28;20757;-60
2021/12/30 02:15:14;;;;;;;2.13;1.73;;;;;;;4.68;100.00;93932.59;4991553;28;20176;-62
2021/12/30 02:17:40;;;;;;;1.97;1.50;;;;;;;4.65;100.00;93932.81;4991589;28;20212;-61
2021/12/30 02:20:09;;;;;;;2.23;1.67;;;;;;;4.66;100.00;93928.59;4990835;28;20267;-60
2021/12/30 02:22:35;;;;;;;2.40;1.87;;;;;;;4.64;100.00;93936.25;4990661;28;20302;-61
2021/12/30 02:25:03;;;;;;;1.93;1.50;;;;;;;4.66;100.00;93931.91;4990695;28;20220;-61
2021/12/30 02:27:29;;;;;;;2.20;1.70;;;;;;;4.69;100.00;93936.72;4989646;28;20244;-59
2021/12/30 02:29:54;;;;;;;3.57;1.90;;;;;;;4.70;100.00;93935.81;4990939;28;20244;-61
2021/12/30 02:32:21;;;;;;;3.50;1.90;;;;;;;4.68;100.00;93932.59;4991078;28;20211;-61
2021/12/30 02:34:48;;;;;;;2.33;1.97;;;;;;;4.72;100.00;93936.50;4991014;28;20206;-62
2021/12/30 02:37:18;;;;;;;1.73;1.63;;;;;;;4.79;100.00;93944.38;4991062;28;20329;-61
2021/12/30 02:39:49;;;;;;;1.90;1.50;;;;;;;4.76;100.00;93944.63;4990630;28;20198;-64
2021/12/30 02:42:15;;;;;;;1.70;1.50;;;;;;;4.77;100.00;93946.22;4990628;28;20589;-61
2021/12/30 02:44:40;;;;;;;3.67;2.20;;;;;;;4.81;100.00;93952.63;4990454;28;20558;-61
2021/12/30 02:47:06;;;;;;;2.00;1.80;;;;;;;4.86;100.00;93951.38;4990941;28;20659;-62
2021/12/30 02:49:31;;;;;;;3.27;1.60;;;;;;;4.81;100.00;93953.44;4990594;28;20194;-59
2021/12/30 02:51:57;;;;;;;3.60;2.37;;;;;;;4.70;100.00;93955.94;4990334;28;20637;-61
2021/12/30 02:54:22;;;;;;;1.93;1.70;;;;;;;4.81;100.00;93960.16;4990438;28;20215;-62
2021/12/30 02:56:48;;;;;;;2.00;1.67;;;;;;;4.75;100.00;93963.13;4990664;28;20227;-62
2021/12/30 02:59:15;;;;;;;2.90;2.10;;;;;;;4.75;100.00;93961.44;4989052;28;20681;-61
2021/12/30 03:01:41;;;;;;;4.03;2.47;;;;;;;4.78;100.00;93960.41;4990610;28;20673;-61
2021/12/30 03:04:07;;;;;;;1.70;1.60;;;;;;;4.93;100.00;93966.81;4990421;28;20215;-61
2021/12/30 03:06:33;;;;;;;2.57;2.00;;;;;;;4.91;100.00;93971.97;4990467;28;20223;-63
2021/12/30 03:08:59;;;;;;;2.00;1.73;;;;;;;4.85;100.00;93974.94;4990337;28;20211;-61
2021/12/30 03:11:26;;;;;;;1.70;1.60;;;;;;;4.84;100.00;93972.56;4990407;28;20297;-61
2021/12/30 03:13:53;;;;;;;2.47;2.00;;;;;;;4.92;100.00;93980.34;4988112;28;20288;-60
2021/12/30 03:16:35;;;;;;;1.90;1.70;;;;;;;4.88;100.00;93977.25;4990593;28;20215;-60
2021/12/30 03:19:01;;;;;;;2.93;1.50;;;;;;;4.77;100.00;93982.25;4990618;28;20213;-60
2021/12/30 03:21:28;;;;;;;2.57;1.87;;;;;;;4.82;100.00;93985.25;4988945;28;20210;-59
2021/12/30 03:23:57;;;;;;;2.07;1.83;;;;;;;4.85;100.00;93985.00;4990279;28;20188;-62
2021/12/30 03:26:22;;;;;;;2.10;1.60;;;;;;;4.90;100.00;93987.22;4988555;28;20279;-62
2021/12/30 03:28:48;;;;;;;2.97;2.00;;;;;;;5.00;100.00;93988.94;4990219;28;20679;-60
2021/12/30 03:31:16;;;;;;;3.07;2.00;;;;;;;4.79;100.00;93995.53;4990277;28;20192;-61
2021/12/30 03:33:42;;;;;;;2.30;1.90;;;;;;;4.77;100.00;93991.53;4989825;28;20184;-61
2021/12/30 03:36:09;;;;;;;3.33;2.30;;;;;;;4.90;100.00;94005.63;4989869;28;20250;-59
2021/12/30 03:38:39;;;;;;;2.37;1.70;;;;;;;4.89;100.00;94001.50;4990131;28;20251;-63
2021/12/30 03:41:07;;;;;;;2.83;2.20;;;;;;;4.89;100.00;93996.47;4989892;28;20199;-61
2021/12/30 03:43:32;;;;;;;1.87;1.70;;;;;;;4.89;100.00;93995.66;4989964;28;20241;-60
2021/12/30 03:45:58;;;;;;;4.63;1.97;;;;;;;4.98;100.00;93995.81;4990112;28;20208;-59
2021/12/30 03:48:31;;;;;;;2.97;1.80;;;;;;;4.91;100.00;94006.41;4989945;28;20541;-61
2021/12/30 03:50:57;;;;;;;1.87;1.77;;;;;;;4.86;100.00;94001.75;4989592;28;20207;-61
2021/12/30 03:53:22;;;;;;;2.40;1.67;;;;;;;4.98;100.00;94002.56;4990025;28;20186;-61
2021/12/30 03:55:51;;;;;;;4.13;1.97;;;;;;;4.97;100.00;94006.78;4989400;28;20248;-61
2021/12/30 03:58:17;;;;;;;2.43;2.00;;;;;;;4.86;100.00;94014.34;4989299;28;20220;-61
2021/12/30 04:00:43;;;;;;;2.83;2.10;;;;;;;4.87;100.00;94018.44;4989418;28;20296;-62
2021/12/30 04:03:09;;;;;;;2.00;1.80;;;;;;;4.93;100.00;94017.19;4989388;28;20554;-58
2021/12/30 04:05:34;;;;;;;2.40;1.77;;;;;;;4.99;100.00;94025.09;4989526;28;20210;-59
2021/12/30 04:08:00;;;;;;;3.53;2.20;;;;;;;4.96;100.00;94037.13;4989557;28;20213;-60
2021/12/30 04:10:25;;;;;;;2.33;2.13;;;;;;;4.90;100.00;94028.31;4989402;28;20535;-61
2021/12/30 04:12:52;;;;;;;2.60;1.80;;;;;;;4.95;100.00;94038.81;4989511;28;20198;-62
2021/12/30 04:15:18;;;;;;;4.43;2.10;;;;;;;4.93;100.00;94035.63;4989296;28;20173;-60
2021/12/30 04:17:45;;;;;;;2.40;2.17;;;;;;;5.03;100.00;94049.13;4987865;28;20226;-60
2021/12/30 04:20:13;;;;;;;3.13;2.27;;;;;;;5.09;100.00;94046.16;4989294;28;20181;-61
2021/12/30 04:22:39;;;;;;;2.67;2.10;;;;;;;5.26;100.00;94049.16;4989978;28;20231;-63
2021/12/30 04:25:07;;;;;;;2.00;1.50;;;;;;;5.25;100.00;94061.00;4989371;28;20279;-62
2021/12/30 04:27:34;;;;;;;3.20;2.03;;;;;;;5.18;100.00;94056.50;4990006;28;20233;-61
2021/12/30 04:29:59;;;;;;;3.23;2.83;;;;;;;5.24;100.00;94068.63;4989655;28;20209;-61
2021/12/30 04:32:25;;;;;;;2.73;2.37;;;;;;;5.09;100.00;94066.31;4989735;28;20204;-60
2021/12/30 04:34:51;;;;;;;3.23;2.70;;;;;;;5.06;100.00;94071.59;5016342;22;20264;-62
2021/12/30 04:37:16;;;;;;;4.57;2.37;;;;;;;5.09;100.00;94075.59;5091445;28;20213;-59
2021/12/30 04:39:42;;;;;;;2.57;2.00;;;;;;;5.09;100.00;94078.91;5091603;28;20189;-61
2021/12/30 04:42:08;;;;;;;1.90;1.70;;;;;;;5.09;100.00;94058.78;5091517;28;20245;-61
2021/12/30 04:44:33;;;;;;;2.23;1.50;;;;;;;5.47;100.00;94078.66;5091787;28;20194;-59
2021/12/30 04:46:59;;;;;;;2.03;1.80;;;;;;;5.58;100.00;94093.75;5091435;28;20283;-58
2021/12/30 04:49:25;;;;;;;2.10;1.87;;;;;;;5.64;100.00;94098.34;5091442;28;20178;-61
2021/12/30 04:51:51;;;;;;;2.87;2.03;;;;;;;5.70;100.00;94089.50;5091403;28;20203;-61
2021/12/30 04:54:18;;;;;;;3.77;2.47;;;;;;;5.56;100.00;94095.59;5091449;28;20188;-59
2021/12/30 04:56:43;;;;;;;2.53;1.90;;;;;;;5.79;100.00;94101.44;5091241;28;20202;-58
2021/12/30 04:59:09;;;;;;;2.07;1.50;;;;;;;5.92;100.00;94112.22;5091170;28;20178;-62
2021/12/30 05:01:35;;;;;;;3.40;2.27;;;;;;;5.76;100.00;94107.50;5090122;28;20211;-59
2021/12/30 05:04:00;;;;;;;2.10;1.73;;;;;;;7.03;100.00;94115.28;5091498;28;20232;-61
2021/12/30 05:06:26;;;;;;;2.30;2.10;;;;;;;8.20;100.00;94109.75;5091771;28;20207;-61
2021/12/30 05:08:51;;;;;;;3.20;2.23;;;;;;;9.13;100.00;94113.47;5091049;28;20179;-62
2021/12/30 05:11:16;;;;;;;2.00;1.90;;;;;;;8.96;100.00;94109.09;5091484;28;20196;-61
2021/12/30 05:13:42;;;;;;;2.33;1.50;;;;;;;8.34;100.00;94116.22;5090897;28;20176;-63
2021/12/30 05:16:07;;;;;;;2.07;1.50;;;;;;;8.88;100.00;94115.75;5089842;28;20238;-61
2021/12/30 05:18:34;;;;;;;2.50;1.30;;;;;;;8.42;100.00;94141.72;5091132;28;20211;-62
2021/12/30 05:21:02;;;;;;;1.70;0.93;;;;;;;7.90;100.00;94145.19;5091305;28;20619;-61
2021/12/30 05:23:28;;;;;;;1.20;1.00;;;;;;;7.72;100.00;94166.94;5090783;28;20630;-63
2021/12/30 05:25:54;;;;;;;1.83;1.30;;;;;;;7.47;100.00;94152.19;5091318;28;20547;-61
2021/12/30 05:28:19;;;;;;;1.33;1.00;;;;;;;7.32;100.00;94150.88;5034829;22;20315;-61
2021/12/30 05:30:45;;;;;;;1.40;1.30;;;;;;;7.24;100.00;94159.06;4988714;28;20282;-63
2021/12/30 05:33:11;;;;;;;1.43;1.20;;;;;;;7.14;100.00;94165.78;4989023;28;20195;-61
2021/12/30 05:35:36;;;;;;;1.03;0.93;;;;;;;7.08;100.00;94178.91;4988393;28;20203;-64
2021/12/30 05:38:03;;;;;;;1.80;1.30;;;;;;;6.96;100.00;94176.53;4989730;28;20219;-62
2021/12/30 05:40:30;;;;;;;1.37;1.00;;;;;;;6.96;100.00;94184.09;4991785;28;20211;-62
2021/12/30 05:42:55;;;;;;;1.30;1.20;;;;;;;6.83;100.00;94174.16;4990786;28;20668;-61
2021/12/30 05:45:21;;;;;;;1.13;1.03;;;;;;;6.65;100.00;94173.84;4991747;28;20190;-61
2021/12/30 05:47:49;;;;;;;1.53;1.10;;;;;;;6.50;100.00;94184.34;4991969;28;20240;-64
2021/12/30 05:50:19;;;;;;;0.93;0.83;;;;;;;6.41;100.00;94200.97;4991446;28;20183;-62
2021/12/30 05:52:45;;;;;;;0.87;0.80;;;;;;;6.41;100.00;94188.34;4990367;28;20191;-62
2021/12/30 05:55:11;;;;;;;1.30;0.83;;;;;;;6.44;100.00;94193.19;4991506;28;20194;-61
2021/12/30 05:57:37;;;;;;;1.30;0.80;;;;;;;6.56;100.00;94199.03;4991844;28;20258;-63
2021/12/30 06:00:05;;;;;;;0.70;0.70;;;;;;;6.56;100.00;94196.50;4991344;28;20221;-64
2021/12/30 06:02:31;;;;;;;1.10;1.00;;;;;;;6.43;100.00;94211.75;4991248;28;20268;-61
2021/12/30 06:04:56;;;;;;;1.87;0.70;;;;;;;6.32;100.00;94186.50;4990423;28;20191;-61
2021/12/30 06:07:22;;;;;;;0.93;0.70;;;;;;;6.50;100.00;94210.41;4991657;28;20265;-61
2021/12/30 06:09:48;;;;;;;1.60;1.10;;;;;;;6.43;100.00;94204.19;4991156;28;20184;-60
2021/12/30 06:12:13;;;;;;;1.07;0.73;;;;;;;6.50;100.00;94220.50;4991484;28;20207;-60
2021/12/30 06:14:39;;;;;;;1.30;0.80;;;;;;;6.57;100.00;94235.97;4991261;28;20192;-60
2021/12/30 06:17:04;;;;;;;0.80;0.80;;;;;;;6.67;100.00;94262.94;4991064;28;20219;-65
2021/12/30 06:19:30;;;;;;;0.93;0.83;;;;;;;6.54;100.00;94259.75;4991715;28;20270;-61
2021/12/30 06:21:55;;;;;;;0.63;0.60;;;;;;;6.60;100.00;94240.78;4991469;28;20242;-65
2021/12/30 06:24:21;;;;;;;0.70;0.70;;;;;;;6.55;100.00;94261.31;4991261;28;20266;-61
2021/12/30 06:26:46;;;;;;;0.90;0.63;;;;;;;6.50;100.00;94278.56;4991187;28;20298;-61
2021/12/30 06:29:12;;;;;;;0.73;0.60;;;;;;;6.50;100.00;94275.22;4991132;28;20195;-61
2021/12/30 06:31:39;;;;;;;0.83;0.83;;;;;;;6.49;100.00;94302.19;4991038;28;20749;-61
2021/12/30 06:34:05;;;;;;;0.53;0.53;;;;;;;6.48;100.00;94299.78;4989753;28;20198;-63
2021/12/30 06:36:30;;;;;;;0.93;0.70;;;;;;;6.61;100.00;94316.41;4996745;23;20245;-62
2021/12/30 06:38:56;;;;;;;0.60;0.60;;;;;;;6.57;100.00;94314.22;4991110;28;20210;-62
2021/12/30 06:41:21;;;;;;;1.00;0.87;;;;;;;6.56;100.00;94313.44;4991438;28;20297;-62
2021/12/30 06:43:47;;;;;;;1.80;0.87;;;;;;;6.46;100.00;94299.09;4991154;28;20690;-65
2021/12/30 06:46:13;;;;;;;1.00;0.87;;;;;;;6.46;100.00;94312.53;4991137;28;20664;-61
2021/12/30 06:48:44;;;;;;;1.10;0.53;;;;;;;6.27;100.00;94317.31;4990547;28;20190;-62
2021/12/30 06:51:10;;;;;;;0.83;0.73;;;;;;;6.17;100.00;94308.00;4991184;28;20612;-61
2021/12/30 06:53:36;;;;;;;1.30;0.60;;;;;;;6.08;100.00;94314.50;4991012;28;20655;-62
2021/12/30 06:56:01;;;;;;;1.40;1.00;;;;;;;6.11;100.00;94321.88;4990988;28;20226;-65
2021/12/30 06:58:27;;;;;;;0.97;0.67;;;;;;;6.03;100.00;94344.31;4990482;28;20218;-61
2021/12/30 07:00:53;;;;;;;1.17;0.70;;;;;;;5.98;100.00;94338.00;4990759;28;20291;-60
2021/12/30 07:03:18;;;;;;;0.80;0.60;;;;;;;6.00;100.00;94303.38;4990523;28;20212;-63
2021/12/30 07:05:45;;;;;;;0.83;0.70;;;;;;;5.83;100.00;94338.19;4990673;28;20210;-61
2021/12/30 07:08:10;;;;;;;1.00;0.90;;;;;;;6.04;100.00;94324.97;4989176;28;20781;-61
2021/12/30 07:10:35;;;;;;;0.70;0.70;;;;;;;6.12;100.00;94333.56;4990361;28;20711;-61
2021/12/30 07:13:01;;;;;;;0.80;0.70;;;;;;;6.05;100.00;94367.72;4990360;28;20656;-64
2021/12/30 07:15:26;;;;;;;1.90;0.83;;;;;;;5.97;100.00;94375.03;4990675;28;20281;-63
2021/12/30 07:17:52;;;;;;;1.93;0.90;;;;;;;5.89;100.00;94357.13;4990218;28;20630;-62
2021/12/30 07:20:17;;;;;;;2.13;0.80;;;;;;;5.92;100.00;94366.97;4990499;28;20527;-63
2021/12/30 07:22:43;;;;;;;1.33;0.90;;;;;;;5.96;100.00;94377.69;4988947;28;20191;-63
2021/12/30 07:25:15;;;;;;;0.97;0.87;;;;;;;5.91;100.00;94370.44;4990622;28;20200;-64
2021/12/30 07:27:41;;;;;;;0.90;0.70;;;;;;;6.14;100.00;94394.03;4990114;28;20221;-65
2021/12/30 07:30:07;;;;;;;1.47;0.80;;;;;;;6.12;100.00;94393.34;4990516;28;20198;-64
2021/12/30 07:32:32;;;;;;;1.10;0.90;;;;;;;6.11;100.00;94387.47;4989743;28;20194;-62
2021/12/30 07:34:58;;;;;;;0.60;0.60;;;;;;;6.21;100.00;94385.09;4989928;28;20637;-63
2021/12/30 07:37:23;;;;;;;1.07;0.90;;;;;;;6.33;100.00;94417.00;4990081;28;20595;-61
2021/12/30 07:39:49;;;;;;;1.57;0.97;;;;;;;6.40;100.00;94423.25;4988798;28;20191;-61
2021/12/30 07:42:15;;;;;;;0.83;0.67;;;;;;;6.33;100.00;94435.50;4989908;28;20202;-62
2021/12/30 07:44:40;;;;;;;0.90;0.80;;;;;;;6.29;100.00;94416.44;4989660;28;20268;-61
2021/12/30 07:47:06;;;;;;;1.00;0.90;;;;;;;6.36;100.00;94425.16;4989807;28;20201;-65
2021/12/30 07:49:36;;;;;;;1.17;1.00;;;;;;;6.43;100.00;94428.88;4989857;28;20256;-63
2021/12/30 07:52:02;;;;;;;1.40;1.07;;;;;;;6.49;100.00;94445.28;4989812;28;20205;-64
2021/12/30 07:54:28;;;;;;;1.40;1.07;;;;;;;6.49;100.00;94435.19;4989989;28;20183;-63
2021/12/30 07:56:53;;;;;;;2.77;1.10;;;;;;;6.48;100.00;94447.03;4989968;28;20252;-61
2021/12/30 07:59:18;;;;;;;1.17;0.90;;;;;;;6.47;100.00;94455.50;4988994;28;20201;-64
2021/12/30 08:01:44;;;;;;;2.90;1.10;;;;;;;6.49;100.00;94468.81;4989838;28;20199;-64
2021/12/30 08:04:09;;;;;;;1.73;0.90;;;;;;;6.36;100.00;94439.53;4989640;28;20183;-65
2021/12/30 08:06:35;;;;;;;2.03;1.40;;;;;;;6.44;100.00;94449.88;4989524;28;20298;-62
2021/12/30 08:09:00;;;;;;;2.03;1.10;;;;;;;6.57;100.00;94469.06;4989643;28;20179;-62
2021/12/30 08:11:26;;;;;;;2.27;1.70;;;;;;;6.48;100.00;94452.06;4990002;28;20316;-62
2021/12/30 08:13:52;;;;;;;2.33;1.57;;;;;;;6.44;100.00;94463.31;4989478;28;20262;-64
2021/12/30 08:16:17;;;;;;;3.97;1.67;;;;;;;6.48;100.00;94468.94;4990012;28;20202;-61
2021/12/30 08:18:43;;;;;;;1.40;1.20;;;;;;;6.39;100.00;94462.81;4989704;28;20270;-65
2021/12/30 08:21:09;;;;;;;3.10;1.70;;;;;;;6.41;100.00;94450.88;4989872;28;20229;-63
2021/12/30 08:23:35;;;;;;;1.57;0.80;;;;;;;8.63;100.00;94425.34;4989537;28;20189;-62
2021/12/30 08:26:03;;;;;;;1.97;1.10;;;;;;;9.95;100.00;94436.16;5043668;22;20705;-62
2021/12/30 08:28:29;;;;;;;1.43;1.10;;;;;;;10.80;100.00;94434.59;5091751;28;20173;-62
2021/12/30 08:30:54;;;;;;;2.73;1.30;;;;;;;12.02;100.00;94453.81;5077297;22;21336;-62
2021/12/30 08:33:20;;;;;;;1.37;1.13;;;;;;;13.18;100.00;94485.94;4989435;28;20269;-63
2021/12/30 08:35:45;;;;;;;1.43;1.20;;;;;;;14.04;100.00;94553.94;4989111;28;20286;-62
2021/12/30 08:38:12;;;;;;;1.47;1.30;;;;;;;14.71;100.00;94567.63;4989120;28;20224;-63
2021/12/30 08:40:38;;;;;;;2.20;1.42;;;;;;;15.13;91.17;94663.88;4987535;28;20723;-62
2021/12/30 08:43:06;;;;;;;3.63;2.10;;;;;;;14.63;74.17;94778.22;4989496;28;20218;-61
2021/12/30 08:45:32;;;;;;;2.63;1.80;;;;;;;13.65;71.80;94744.38;4988951;28;20223;-66
2021/12/30 08:47:58;;;;;;;3.17;1.70;;;;;;;12.59;72.14;94708.44;4988980;28;20184;-62
2021/12/30 08:50:24;;;;;;;3.27;2.50;;;;;;;11.55;75.33;94638.16;4989012;28;20180;-61
2021/12/30 08:52:50;;;;;;;4.70;2.33;;;;;;;10.83;75.89;94607.19;4987983;28;20621;-60
2021/12/30 08:55:16;;;;;;;6.50;2.77;;;;;;;9.55;79.73;94532.63;4987593;28;20210;-61
2021/12/30 08:57:43;;;;;;;1.90;1.50;;;;;;;9.23;80.91;94540.31;4988751;28;20695;-62
2021/12/30 09:00:17;;;;;;;2.10;1.10;;;;;;;8.71;83.08;94509.16;4987614;28;20266;-63
2021/12/30 09:02:43;;;;;;;2.30;1.60;;;;;;;8.39;84.65;94499.03;4988896;28;20180;-62
2021/12/30 09:05:09;;;;;;;2.10;1.80;;;;;;;8.48;82.69;94538.03;4987404;28;20182;-62
2021/12/30 09:07:35;;;;;;;1.83;1.53;;;;;;;8.00;82.84;94540.88;4989240;28;20686;-61
2021/12/30 09:10:01;;;;;;;2.90;1.90;;;;;;;7.71;86.70;94486.63;4987384;28;20267;-61
2021/12/30 09:12:26;;;;;;;2.70;1.40;;;;;;;7.22;86.47;94513.97;4990979;28;20230;-62
2021/12/30 09:14:52;;;;;;;1.57;1.33;;;;;;;7.08;87.67;94509.13;4990729;28;20567;-64
2021/12/30 09:17:17;;;;;;;1.97;1.40;;;;;;;6.60;88.88;94503.41;4991817;28;20211;-63
2021/12/30 09:19:43;;;;;;;2.53;1.60;;;;;;;6.49;92.20;94494.06;4992338;28;20183;-63
2021/12/30 09:22:09;;;;;;;2.43;1.50;;;;;;;6.56;93.53;94533.13;4992412;28;20199;-62
2021/12/30 09:24:34;;;;;;;2.27;1.50;;;;;;;6.63;91.23;94541.06;4992213;28;20249;-63
2021/12/30 09:27:01;;;;;;;3.10;1.97;;;;;;;6.69;93.88;94516.16;4990643;28;20677;-63
2021/12/30 09:29:27;;;;;;;1.97;1.47;;;;;;;6.60;93.58;94524.41;4992061;28;20195;-65
2021/12/30 09:31:52;;;;;;;3.27;1.57;;;;;;;6.55;92.61;94539.09;4991946;28;20210;-65
2021/12/30 09:34:19;;;;;;;2.20;1.60;;;;;;;6.39;92.92;94536.03;4991762;28;20265;-63
2021/12/30 09:36:44;;;;;;;2.97;1.60;;;;;;;6.45;94.98;94517.91;4992136;28;20611;-61
2021/12/30 09:39:13;;;;;;;3.17;2.00;;;;;;;6.50;96.35;94502.44;4990221;28;20341;-63
2021/12/30 09:41:41;;;;;;;3.27;2.27;;;;;;;6.70;93.24;94554.88;4991954;28;20209;-65
2021/12/30 09:44:07;;;;;;;2.20;2.00;;;;;;;6.62;94.06;94537.75;4991727;28;20617;-61
2021/12/30 09:46:34;;;;;;;3.27;2.07;;;;;;;6.70;92.61;94544.75;4991814;28;20206;-61
2021/12/30 09:49:01;;;;;;;3.83;2.20;;;;;;;6.64;96.34;94517.41;4991928;28;20195;-61
2021/12/30 09:51:27;;;;;;;3.60;2.30;;;;;;;6.75;96.88;94519.97;4991958;28;20211;-62
2021/12/30 09:53:52;;;;;;;2.00;1.63;;;;;;;6.64;96.83;94519.94;4991540;28;20178;-62
2021/12/30 09:56:19;;;;;;;2.50;1.80;;;;;;;6.78;94.20;94558.47;4991577;28;20217;-65
2021/12/30 09:58:46;;;;;;;1.70;1.60;;;;;;;6.72;94.28;94546.28;4991270;28;20208;-62
2021/12/30 10:01:15;;;;;;;2.30;1.63;;;;;;;6.85;92.50;94565.59;4991643;28;20613;-62
2021/12/30 10:03:42;;;;;;;1.60;1.47;;;;;;;6.80;93.83;94548.25;4991467;28;20183;-64
2021/12/30 10:06:11;;;;;;;1.67;1.30;;;;;;;6.70;94.29;94538.00;4996519;23;20743;-62
2021/12/30 10:08:42;;;;;;;1.63;1.27;;;;;;;6.75;93.16;94556.16;4991249;28;20571;-64
2021/12/30 10:11:14;;;;;;;2.17;1.20;;;;;;;6.70;93.53;94547.28;4989884;28;20207;-65
2021/12/30 10:13:53;;;;;;;2.43;1.23;;;;;;;6.75;94.99;94530.88;5074782;22;20611;-64
2021/12/30 10:16:19;;;;;;;2.47;1.33;;;;;;;6.83;96.40;94527.81;5093672;28;20672;-61
2021/12/30 10:18:55;;;;;;;2.87;2.07;;;;;;;6.90;94.07;94553.44;5093511;28;20261;-63
2021/12/30 10:21:26;;;;;;;3.07;1.37;;;;;;;6.85;90.77;94596.69;5092218;28;20195;-66
2021/12/30 10:23:54;;;;;;;4.30;2.77;;;;;;;6.58;90.85;94574.22;5093008;28;20262;-62
2021/12/30 10:26:20;;;;;;;1.50;1.40;;;;;;;6.82;91.25;94579.25;5093289;28;20195;-61
2021/12/30 10:28:50;;;;;;;2.00;1.20;;;;;;;6.93;91.23;94571.69;5093723;28;20225;-61
2021/12/30 10:31:19;;;;;;;2.40;1.67;;;;;;;6.93;91.54;94574.22;5093636;28;20673;-62
2021/12/30 10:33:47;;;;;;;2.67;1.43;;;;;;;6.90;91.96;94569.41;5092231;28;20184;-63
2021/12/30 10:36:20;;;;;;;2.03;1.57;;;;;;;6.87;89.08;94609.25;5093338;28;20191;-63
2021/12/30 10:38:46;;;;;;;1.77;1.17;;;;;;;6.90;90.36;94594.66;5093214;28;20265;-66
2021/12/30 10:41:13;;;;;;;2.10;1.60;;;;;;;6.89;91.35;94565.25;5093326;28;20621;-64
2021/12/30 10:43:46;;;;;;;1.83;1.57;;;;;;;7.06;90.42;94586.78;5093648;28;20187;-63
2021/12/30 10:46:16;;;;;;;1.63;1.33;;;;;;;7.11;88.55;94620.13;5093199;28;20238;-64
2021/12/30 10:48:57;;;;;;;2.63;1.60;;;;;;;6.82;91.11;94565.81;5093167;28;20593;-62
2021/12/30 10:51:28;;;;;;;2.17;1.30;;;;;;;6.72;92.61;94538.69;5091566;28;20203;-62
2021/12/30 10:53:56;;;;;;;2.73;1.53;;;;;;;6.88;95.47;94535.88;5093239;28;20656;-65
2021/12/30 10:56:33;;;;;;;1.77;1.53;;;;;;;7.06;93.50;94561.50;5092933;28;20196;-63
2021/12/30 10:59:19;;;;;;;4.63;1.80;;;;;;;7.14;92.76;94557.53;5092933;28;20695;-65
2021/12/30 11:01:48;;;;;;;7.23;2.53;;;;;;;7.16;91.86;94570.84;5093159;28;20208;-62
2021/12/30 11:04:14;;;;;;;2.40;1.63;;;;;;;7.15;87.51;94640.00;5092720;28;20224;-64
2021/12/30 11:06:49;;;;;;;2.53;2.07;;;;;;;7.16;87.70;94607.97;5092783;28;20211;-64
2021/12/30 11:09:22;;;;;;;2.83;1.80;;;;;;;6.93;88.08;94618.91;5092860;28;20236;-61
2021/12/30 11:11:53;;;;;;;1.70;1.50;;;;;;;6.65;87.21;94630.97;5092934;28;20277;-63
2021/12/30 11:14:37;;;;;;;2.83;1.93;;;;;;;6.83;88.26;94603.59;5092929;28;20619;-64
2021/12/30 11:17:21;;;;;;;2.77;2.37;;;;;;;7.14;90.14;94581.97;5092754;28;20234;-64
2021/12/30 11:19:52;;;;;;;3.70;1.90;;;;;;;7.10;90.45;94575.53;5092895;28;20545;-62
2021/12/30 11:22:25;;;;;;;7.73;2.90;;;;;;;6.80;88.91;94613.94;5092852;28;20705;-64
2021/12/30 11:24:52;;;;;;;6.47;2.83;;;;;;;6.41;88.29;94609.94;5092619;28;20644;-62
2021/12/30 11:27:28;;;;;;;4.23;2.13;;;;;;;6.01;89.53;94612.75;5092574;28;20642;-62
2021/12/30 11:29:57;;;;;;;3.10;2.00;;;;;;;6.01;90.07;94602.66;5091125;28;20182;-62
2021/12/30 11:32:26;;;;;;;6.10;2.60;;;;;;;5.92;91.83;94583.91;5069116;22;20239;-62
2021/12/30 11:34:52;;;;;;;9.27;2.40;;;;;;;6.23;93.93;94573.34;4988051;28;20191;-62